sensor_id;sensor_type;location;lat;lon;timestamp;P1;P2;P0
39955;PMS5003;25631;51.516;-0.470;2022-12-07T00:01:30;15;14;
39955;PMS5003;25631;51.516;-0.470;2022-12-07T00:04:10;16;15;
39955;PMS5003;25631;51.516;-0.470;2022-12-07T00:06:50;16;15;
39955;PMS5003;25631;51.516;-0.470;2022-12-07T00:09:28;16;15;
39955;PMS5003;25631;51.516;-0.470;2022-12-07T00:12:04;17;16;
39955;PMS5003;25631;51.516;-0.470;2022-12-07T00:14:41;17;16;
39955;PMS5003;25631;51.516;-0.470;2022-12-07T00:17:17;17;16;
39955;PMS5003;25631;51.516;-0.470;2022-12-07T00:19:54;16;15;
39955;PMS5003;25631;51.516;-0.470;2022-12-07T00:22:31;15;14;
39955;PMS5003;25631;51.516;-0.470;2022-12-07T00:25:07;15;14;
39955;PMS5003;25631;51.516;-0.470;2022-12-07T00:27:44;15;15;
39955;PMS5003;25631;51.516;-0.470;2022-12-07T00:30:20;16;16;
39955;PMS5003;25631;51.516;-0.470;2022-12-07T00:32:57;16;16;
39955;PMS5003;25631;51.516;-0.470;2022-12-07T00:35:33;17;16;
39955;PMS5003;25631;51.516;-0.470;2022-12-07T00:38:10;17;16;
39955;PMS5003;25631;51.516;-0.470;2022-12-07T00:40:53;17;16;
39955;PMS5003;25631;51.516;-0.470;2022-12-07T00:43:31;16;16;
39955;PMS5003;25631;51.516;-0.470;2022-12-07T00:46:08;16;16;
39955;PMS5003;25631;51.516;-0.470;2022-12-07T00:48:46;16;16;
39955;PMS5003;25631;51.516;-0.470;2022-12-07T00:51:23;16;16;
39955;PMS5003;25631;51.516;-0.470;2022-12-07T00:54:01;16;16;
39955;PMS5003;25631;51.516;-0.470;2022-12-07T00:56:37;16;16;
39955;PMS5003;25631;51.516;-0.470;2022-12-07T00:59:14;17;17;
39955;PMS5003;25631;51.516;-0.470;2022-12-07T01:01:51;17;17;
39955;PMS5003;25631;51.516;-0.470;2022-12-07T01:04:27;17;17;
39955;PMS5003;25631;51.516;-0.470;2022-12-07T01:07:03;17;17;
39955;PMS5003;25631;51.516;-0.470;2022-12-07T01:09:40;17;17;
39955;PMS5003;25631;51.516;-0.470;2022-12-07T01:12:16;17;17;
39955;PMS5003;25631;51.516;-0.470;2022-12-07T01:14:53;19;19;
39955;PMS5003;25631;51.516;-0.470;2022-12-07T01:17:30;19;19;
39955;PMS5003;25631;51.516;-0.470;2022-12-07T01:20:07;19;19;
39955;PMS5003;25631;51.516;-0.470;2022-12-07T01:22:44;18;18;
39955;PMS5003;25631;51.516;-0.470;2022-12-07T01:25:21;19;19;
39955;PMS5003;25631;51.516;-0.470;2022-12-07T01:27:57;18;18;
39955;PMS5003;25631;51.516;-0.470;2022-12-07T01:30:34;17;17;
39955;PMS5003;25631;51.516;-0.470;2022-12-07T01:33:10;19;18;
39955;PMS5003;25631;51.516;-0.470;2022-12-07T01:35:47;20;19;
39955;PMS5003;25631;51.516;-0.470;2022-12-07T01:38:23;20;19;
39955;PMS5003;25631;51.516;-0.470;2022-12-07T01:41:00;20;19;
39955;PMS5003;25631;51.516;-0.470;2022-12-07T01:44:06;20;19;
39955;PMS5003;25631;51.516;-0.470;2022-12-07T01:46:46;19;18;
39955;PMS5003;25631;51.516;-0.470;2022-12-07T01:49:27;19;18;
39955;PMS5003;25631;51.516;-0.470;2022-12-07T01:52:10;19;18;
39955;PMS5003;25631;51.516;-0.470;2022-12-07T01:54:53;18;18;
39955;PMS5003;25631;51.516;-0.470;2022-12-07T01:57:34;18;18;
39955;PMS5003;25631;51.516;-0.470;2022-12-07T02:00:14;18;18;
39955;PMS5003;25631;51.516;-0.470;2022-12-07T02:02:53;18;18;
39955;PMS5003;25631;51.516;-0.470;2022-12-07T02:05:37;18;18;
39955;PMS5003;25631;51.516;-0.470;2022-12-07T02:08:16;18;18;
39955;PMS5003;25631;51.516;-0.470;2022-12-07T02:10:53;18;17;
39955;PMS5003;25631;51.516;-0.470;2022-12-07T02:13:31;18;17;
39955;PMS5003;25631;51.516;-0.470;2022-12-07T02:16:13;18;17;
39955;PMS5003;25631;51.516;-0.470;2022-12-07T02:19:00;17;17;
39955;PMS5003;25631;51.516;-0.470;2022-12-07T02:22:07;17;17;
39955;PMS5003;25631;51.516;-0.470;2022-12-07T02:24:54;17;17;
39955;PMS5003;25631;51.516;-0.470;2022-12-07T02:27:43;18;17;
39955;PMS5003;25631;51.516;-0.470;2022-12-07T02:30:23;18;17;
39955;PMS5003;25631;51.516;-0.470;2022-12-07T02:33:08;18;17;
39955;PMS5003;25631;51.516;-0.470;2022-12-07T02:35:50;18;17;
39955;PMS5003;25631;51.516;-0.470;2022-12-07T02:38:33;18;17;
39955;PMS5003;25631;51.516;-0.470;2022-12-07T02:41:16;18;17;
39955;PMS5003;25631;51.516;-0.470;2022-12-07T02:43:58;17;17;
39955;PMS5003;25631;51.516;-0.470;2022-12-07T02:46:38;17;17;
39955;PMS5003;25631;51.516;-0.470;2022-12-07T02:49:18;17;17;
39955;PMS5003;25631;51.516;-0.470;2022-12-07T02:51:58;16;16;
39955;PMS5003;25631;51.516;-0.470;2022-12-07T02:54:34;16;16;
39955;PMS5003;25631;51.516;-0.470;2022-12-07T02:57:15;16;16;
39955;PMS5003;25631;51.516;-0.470;2022-12-07T03:00:05;15;15;
39955;PMS5003;25631;51.516;-0.470;2022-12-07T03:02:48;15;15;
39955;PMS5003;25631;51.516;-0.470;2022-12-07T03:05:34;15;15;
39955;PMS5003;25631;51.516;-0.470;2022-12-07T03:08:21;15;15;
39955;PMS5003;25631;51.516;-0.470;2022-12-07T03:11:06;15;15;
39955;PMS5003;25631;51.516;-0.470;2022-12-07T03:13:49;15;15;
39955;PMS5003;25631;51.516;-0.470;2022-12-07T03:16:33;15;15;
39955;PMS5003;25631;51.516;-0.470;2022-12-07T03:19:17;15;15;
39955;PMS5003;25631;51.516;-0.470;2022-12-07T03:21:56;15;15;
39955;PMS5003;25631;51.516;-0.470;2022-12-07T03:24:36;15;15;
39955;PMS5003;25631;51.516;-0.470;2022-12-07T03:27:21;15;15;
39955;PMS5003;25631;51.516;-0.470;2022-12-07T03:30:02;15;15;
39955;PMS5003;25631;51.516;-0.470;2022-12-07T03:32:43;14;14;
39955;PMS5003;25631;51.516;-0.470;2022-12-07T03:35:22;14;14;
39955;PMS5003;25631;51.516;-0.470;2022-12-07T03:38:02;14;14;
39955;PMS5003;25631;51.516;-0.470;2022-12-07T03:40:47;14;14;
39955;PMS5003;25631;51.516;-0.470;2022-12-07T03:43:28;15;15;
39955;PMS5003;25631;51.516;-0.470;2022-12-07T03:46:07;15;15;
39955;PMS5003;25631;51.516;-0.470;2022-12-07T03:48:56;16;16;
39955;PMS5003;25631;51.516;-0.470;2022-12-07T03:51:39;16;16;
39955;PMS5003;25631;51.516;-0.470;2022-12-07T03:54:21;16;16;
39955;PMS5003;25631;51.516;-0.470;2022-12-07T03:57:02;16;15;
39955;PMS5003;25631;51.516;-0.470;2022-12-07T03:59:40;16;15;
39955;PMS5003;25631;51.516;-0.470;2022-12-07T04:02:18;15;14;
39955;PMS5003;25631;51.516;-0.470;2022-12-07T04:04:55;16;14;
39955;PMS5003;25631;51.516;-0.470;2022-12-07T04:07:32;16;14;
39955;PMS5003;25631;51.516;-0.470;2022-12-07T04:10:09;17;15;
39955;PMS5003;25631;51.516;-0.470;2022-12-07T04:12:46;19;17;
39955;PMS5003;25631;51.516;-0.470;2022-12-07T04:15:22;19;17;
39955;PMS5003;25631;51.516;-0.470;2022-12-07T04:17:59;19;17;
39955;PMS5003;25631;51.516;-0.470;2022-12-07T04:20:35;19;17;
39955;PMS5003;25631;51.516;-0.470;2022-12-07T04:23:12;20;18;
39955;PMS5003;25631;51.516;-0.470;2022-12-07T04:25:48;21;19;
39955;PMS5003;25631;51.516;-0.470;2022-12-07T04:28:25;22;20;
39955;PMS5003;25631;51.516;-0.470;2022-12-07T04:31:01;22;20;
39955;PMS5003;25631;51.516;-0.470;2022-12-07T04:33:38;22;20;
39955;PMS5003;25631;51.516;-0.470;2022-12-07T04:36:14;21;20;
39955;PMS5003;25631;51.516;-0.470;2022-12-07T04:38:52;21;20;
39955;PMS5003;25631;51.516;-0.470;2022-12-07T04:41:30;21;20;
39955;PMS5003;25631;51.516;-0.470;2022-12-07T04:44:08;20;19;
39955;PMS5003;25631;51.516;-0.470;2022-12-07T04:46:50;20;19;
39955;PMS5003;25631;51.516;-0.470;2022-12-07T04:49:27;22;20;
39955;PMS5003;25631;51.516;-0.470;2022-12-07T04:52:04;21;20;
39955;PMS5003;25631;51.516;-0.470;2022-12-07T04:54:40;20;19;
39955;PMS5003;25631;51.516;-0.470;2022-12-07T04:57:17;20;19;
39955;PMS5003;25631;51.516;-0.470;2022-12-07T04:59:53;21;19;
39955;PMS5003;25631;51.516;-0.470;2022-12-07T05:02:30;21;19;
39955;PMS5003;25631;51.516;-0.470;2022-12-07T05:05:07;21;19;
39955;PMS5003;25631;51.516;-0.470;2022-12-07T05:07:43;21;19;
39955;PMS5003;25631;51.516;-0.470;2022-12-07T05:10:20;21;19;
39955;PMS5003;25631;51.516;-0.470;2022-12-07T05:12:57;21;19;
39955;PMS5003;25631;51.516;-0.470;2022-12-07T05:15:33;21;19;
39955;PMS5003;25631;51.516;-0.470;2022-12-07T05:18:10;21;19;
39955;PMS5003;25631;51.516;-0.470;2022-12-07T05:20:46;21;19;
39955;PMS5003;25631;51.516;-0.470;2022-12-07T05:23:22;21;19;
39955;PMS5003;25631;51.516;-0.470;2022-12-07T05:25:59;21;19;
39955;PMS5003;25631;51.516;-0.470;2022-12-07T05:28:35;21;19;
39955;PMS5003;25631;51.516;-0.470;2022-12-07T05:31:12;22;20;
39955;PMS5003;25631;51.516;-0.470;2022-12-07T05:33:48;22;20;
39955;PMS5003;25631;51.516;-0.470;2022-12-07T05:36:25;22;20;
39955;PMS5003;25631;51.516;-0.470;2022-12-07T05:39:02;21;19;
39955;PMS5003;25631;51.516;-0.470;2022-12-07T05:41:39;21;19;
39955;PMS5003;25631;51.516;-0.470;2022-12-07T05:44:15;21;19;
39955;PMS5003;25631;51.516;-0.470;2022-12-07T05:46:52;21;19;
39955;PMS5003;25631;51.516;-0.470;2022-12-07T05:49:29;21;19;
39955;PMS5003;25631;51.516;-0.470;2022-12-07T05:52:05;21;19;
39955;PMS5003;25631;51.516;-0.470;2022-12-07T05:54:42;20;19;
39955;PMS5003;25631;51.516;-0.470;2022-12-07T05:57:19;20;19;
39955;PMS5003;25631;51.516;-0.470;2022-12-07T05:59:55;20;19;
39955;PMS5003;25631;51.516;-0.470;2022-12-07T06:02:32;18;17;
39955;PMS5003;25631;51.516;-0.470;2022-12-07T06:05:08;18;17;
39955;PMS5003;25631;51.516;-0.470;2022-12-07T06:07:44;18;17;
39955;PMS5003;25631;51.516;-0.470;2022-12-07T06:10:21;16;16;
39955;PMS5003;25631;51.516;-0.470;2022-12-07T06:12:58;16;16;
39955;PMS5003;25631;51.516;-0.470;2022-12-07T06:15:35;16;16;
39955;PMS5003;25631;51.516;-0.470;2022-12-07T06:18:11;15;15;
39955;PMS5003;25631;51.516;-0.470;2022-12-07T06:20:48;15;15;
39955;PMS5003;25631;51.516;-0.470;2022-12-07T06:23:24;15;15;
39955;PMS5003;25631;51.516;-0.470;2022-12-07T06:26:01;16;15;
39955;PMS5003;25631;51.516;-0.470;2022-12-07T06:28:37;16;15;
39955;PMS5003;25631;51.516;-0.470;2022-12-07T06:31:14;16;15;
39955;PMS5003;25631;51.516;-0.470;2022-12-07T06:33:50;14;14;
39955;PMS5003;25631;51.516;-0.470;2022-12-07T06:36:27;14;14;
39955;PMS5003;25631;51.516;-0.470;2022-12-07T06:39:04;14;14;
39955;PMS5003;25631;51.516;-0.470;2022-12-07T06:41:41;13;13;
39955;PMS5003;25631;51.516;-0.470;2022-12-07T06:44:17;13;13;
39955;PMS5003;25631;51.516;-0.470;2022-12-07T06:46:55;13;13;
39955;PMS5003;25631;51.516;-0.470;2022-12-07T06:49:31;14;14;
39955;PMS5003;25631;51.516;-0.470;2022-12-07T06:52:08;14;14;
39955;PMS5003;25631;51.516;-0.470;2022-12-07T06:54:45;14;14;
39955;PMS5003;25631;51.516;-0.470;2022-12-07T06:57:21;14;13;
39955;PMS5003;25631;51.516;-0.470;2022-12-07T06:59:58;14;13;
39955;PMS5003;25631;51.516;-0.470;2022-12-07T07:02:34;14;13;
39955;PMS5003;25631;51.516;-0.470;2022-12-07T07:05:10;14;13;
39955;PMS5003;25631;51.516;-0.470;2022-12-07T07:07:48;14;13;
39955;PMS5003;25631;51.516;-0.470;2022-12-07T07:10:24;14;13;
39955;PMS5003;25631;51.516;-0.470;2022-12-07T07:13:01;14;13;
39955;PMS5003;25631;51.516;-0.470;2022-12-07T07:15:38;14;13;
39955;PMS5003;25631;51.516;-0.470;2022-12-07T07:18:15;14;13;
39955;PMS5003;25631;51.516;-0.470;2022-12-07T07:20:51;15;14;
39955;PMS5003;25631;51.516;-0.470;2022-12-07T07:23:29;15;14;
39955;PMS5003;25631;51.516;-0.470;2022-12-07T07:26:06;15;14;
39955;PMS5003;25631;51.516;-0.470;2022-12-07T07:28:42;15;14;
39955;PMS5003;25631;51.516;-0.470;2022-12-07T07:31:18;15;14;
39955;PMS5003;25631;51.516;-0.470;2022-12-07T07:33:55;15;14;
39955;PMS5003;25631;51.516;-0.470;2022-12-07T07:36:32;16;15;
39955;PMS5003;25631;51.516;-0.470;2022-12-07T07:39:09;16;15;
39955;PMS5003;25631;51.516;-0.470;2022-12-07T07:41:46;16;15;
39955;PMS5003;25631;51.516;-0.470;2022-12-07T07:44:23;16;15;
39955;PMS5003;25631;51.516;-0.470;2022-12-07T07:46:59;16;15;
39955;PMS5003;25631;51.516;-0.470;2022-12-07T07:49:36;16;15;
39955;PMS5003;25631;51.516;-0.470;2022-12-07T07:52:12;16;15;
39955;PMS5003;25631;51.516;-0.470;2022-12-07T07:54:49;16;15;
39955;PMS5003;25631;51.516;-0.470;2022-12-07T07:57:25;16;15;
39955;PMS5003;25631;51.516;-0.470;2022-12-07T08:00:03;16;15;
39955;PMS5003;25631;51.516;-0.470;2022-12-07T08:02:41;16;15;
39955;PMS5003;25631;51.516;-0.470;2022-12-07T08:05:18;16;15;
39955;PMS5003;25631;51.516;-0.470;2022-12-07T08:07:55;15;14;
39955;PMS5003;25631;51.516;-0.470;2022-12-07T08:10:33;15;14;
39955;PMS5003;25631;51.516;-0.470;2022-12-07T08:13:10;15;14;
39955;PMS5003;25631;51.516;-0.470;2022-12-07T08:15:47;17;15;
39955;PMS5003;25631;51.516;-0.470;2022-12-07T08:18:24;17;15;
39955;PMS5003;25631;51.516;-0.470;2022-12-07T08:21:00;17;15;
39955;PMS5003;25631;51.516;-0.470;2022-12-07T08:23:37;18;15;
39955;PMS5003;25631;51.516;-0.470;2022-12-07T08:26:14;18;15;
39955;PMS5003;25631;51.516;-0.470;2022-12-07T08:28:52;18;15;
39955;PMS5003;25631;51.516;-0.470;2022-12-07T08:31:29;18;16;
39955;PMS5003;25631;51.516;-0.470;2022-12-07T08:34:05;18;16;
39955;PMS5003;25631;51.516;-0.470;2022-12-07T08:36:42;18;16;
39955;PMS5003;25631;51.516;-0.470;2022-12-07T08:39:19;18;16;
39955;PMS5003;25631;51.516;-0.470;2022-12-07T08:41:55;18;16;
39955;PMS5003;25631;51.516;-0.470;2022-12-07T08:44:31;18;16;
39955;PMS5003;25631;51.516;-0.470;2022-12-07T08:47:08;19;16;
39955;PMS5003;25631;51.516;-0.470;2022-12-07T08:49:47;18;15;
39955;PMS5003;25631;51.516;-0.470;2022-12-07T08:52:26;18;15;
39955;PMS5003;25631;51.516;-0.470;2022-12-07T08:55:03;18;16;
39955;PMS5003;25631;51.516;-0.470;2022-12-07T08:57:40;19;17;
39955;PMS5003;25631;51.516;-0.470;2022-12-07T09:00:17;19;17;
39955;PMS5003;25631;51.516;-0.470;2022-12-07T09:02:54;19;16;
39955;PMS5003;25631;51.516;-0.470;2022-12-07T09:05:30;18;15;
39955;PMS5003;25631;51.516;-0.470;2022-12-07T09:08:09;18;15;
39955;PMS5003;25631;51.516;-0.470;2022-12-07T09:10:45;19;16;
39955;PMS5003;25631;51.516;-0.470;2022-12-07T09:13:22;19;16;
39955;PMS5003;25631;51.516;-0.470;2022-12-07T09:15:58;19;16;
39955;PMS5003;25631;51.516;-0.470;2022-12-07T09:18:35;19;16;
39955;PMS5003;25631;51.516;-0.470;2022-12-07T09:21:11;19;16;
39955;PMS5003;25631;51.516;-0.470;2022-12-07T09:23:48;19;16;
39955;PMS5003;25631;51.516;-0.470;2022-12-07T09:26:24;20;17;
39955;PMS5003;25631;51.516;-0.470;2022-12-07T09:29:01;20;17;
39955;PMS5003;25631;51.516;-0.470;2022-12-07T09:31:38;20;17;
39955;PMS5003;25631;51.516;-0.470;2022-12-07T09:34:15;19;17;
39955;PMS5003;25631;51.516;-0.470;2022-12-07T09:36:51;19;17;
39955;PMS5003;25631;51.516;-0.470;2022-12-07T09:39:28;19;17;
39955;PMS5003;25631;51.516;-0.470;2022-12-07T09:42:06;17;17;
39955;PMS5003;25631;51.516;-0.470;2022-12-07T09:44:43;17;17;
39955;PMS5003;25631;51.516;-0.470;2022-12-07T09:47:19;17;17;
39955;PMS5003;25631;51.516;-0.470;2022-12-07T09:49:59;17;16;
39955;PMS5003;25631;51.516;-0.470;2022-12-07T09:52:40;17;16;
39955;PMS5003;25631;51.516;-0.470;2022-12-07T09:55:19;17;16;
39955;PMS5003;25631;51.516;-0.470;2022-12-07T09:58:00;17;16;
39955;PMS5003;25631;51.516;-0.470;2022-12-07T10:00:36;17;16;
39955;PMS5003;25631;51.516;-0.470;2022-12-07T10:03:13;17;16;
39955;PMS5003;25631;51.516;-0.470;2022-12-07T10:05:50;17;16;
39955;PMS5003;25631;51.516;-0.470;2022-12-07T10:08:28;17;16;
39955;PMS5003;25631;51.516;-0.470;2022-12-07T10:11:05;17;16;
39955;PMS5003;25631;51.516;-0.470;2022-12-07T10:13:42;17;16;
39955;PMS5003;25631;51.516;-0.470;2022-12-07T10:16:31;17;16;
39955;PMS5003;25631;51.516;-0.470;2022-12-07T10:19:27;17;16;
39955;PMS5003;25631;51.516;-0.470;2022-12-07T10:22:09;18;17;
39955;PMS5003;25631;51.516;-0.470;2022-12-07T10:24:47;18;17;
39955;PMS5003;25631;51.516;-0.470;2022-12-07T10:27:26;18;17;
39955;PMS5003;25631;51.516;-0.470;2022-12-07T10:30:07;18;17;
39955;PMS5003;25631;51.516;-0.470;2022-12-07T10:32:50;18;17;
39955;PMS5003;25631;51.516;-0.470;2022-12-07T10:35:27;18;17;
39955;PMS5003;25631;51.516;-0.470;2022-12-07T10:38:07;21;19;
39955;PMS5003;25631;51.516;-0.470;2022-12-07T10:41:02;21;19;
39955;PMS5003;25631;51.516;-0.470;2022-12-07T10:43:46;21;19;
39955;PMS5003;25631;51.516;-0.470;2022-12-07T10:46:27;20;18;
39955;PMS5003;25631;51.516;-0.470;2022-12-07T10:49:25;20;18;
39955;PMS5003;25631;51.516;-0.470;2022-12-07T10:51:49;20;18;
39955;PMS5003;25631;51.516;-0.470;2022-12-07T10:54:36;22;20;
39955;PMS5003;25631;51.516;-0.470;2022-12-07T10:57:24;22;20;
39955;PMS5003;25631;51.516;-0.470;2022-12-07T11:00:13;22;21;
39955;PMS5003;25631;51.516;-0.470;2022-12-07T11:02:57;23;22;
39955;PMS5003;25631;51.516;-0.470;2022-12-07T11:05:18;25;23;
39955;PMS5003;25631;51.516;-0.470;2022-12-07T11:08:03;24;22;
39955;PMS5003;25631;51.516;-0.470;2022-12-07T11:10:50;24;22;
39955;PMS5003;25631;51.516;-0.470;2022-12-07T11:13:33;22;21;
39955;PMS5003;25631;51.516;-0.470;2022-12-07T11:16:21;22;21;
39955;PMS5003;25631;51.516;-0.470;2022-12-07T11:19:06;23;21;
39955;PMS5003;25631;51.516;-0.470;2022-12-07T11:21:56;21;19;
39955;PMS5003;25631;51.516;-0.470;2022-12-07T11:24:37;23;21;
39955;PMS5003;25631;51.516;-0.470;2022-12-07T11:27:26;23;21;
39955;PMS5003;25631;51.516;-0.470;2022-12-07T11:30:13;23;21;
39955;PMS5003;25631;51.516;-0.470;2022-12-07T11:32:58;23;21;
39955;PMS5003;25631;51.516;-0.470;2022-12-07T11:35:46;22;20;
39955;PMS5003;25631;51.516;-0.470;2022-12-07T11:38:34;22;20;
39955;PMS5003;25631;51.516;-0.470;2022-12-07T11:41:20;22;20;
39955;PMS5003;25631;51.516;-0.470;2022-12-07T11:44:01;21;20;
39955;PMS5003;25631;51.516;-0.470;2022-12-07T11:46:44;21;20;
39955;PMS5003;25631;51.516;-0.470;2022-12-07T11:49:27;21;20;
39955;PMS5003;25631;51.516;-0.470;2022-12-07T11:52:18;20;20;
39955;PMS5003;25631;51.516;-0.470;2022-12-07T11:55:01;20;20;
39955;PMS5003;25631;51.516;-0.470;2022-12-07T11:57:41;20;20;
39955;PMS5003;25631;51.516;-0.470;2022-12-07T12:00:21;21;20;
39955;PMS5003;25631;51.516;-0.470;2022-12-07T12:02:59;21;20;
39955;PMS5003;25631;51.516;-0.470;2022-12-07T12:05:41;21;20;
39955;PMS5003;25631;51.516;-0.470;2022-12-07T12:08:19;21;20;
39955;PMS5003;25631;51.516;-0.470;2022-12-07T12:11:05;21;20;
39955;PMS5003;25631;51.516;-0.470;2022-12-07T12:13:56;21;20;
39955;PMS5003;25631;51.516;-0.470;2022-12-07T12:16:50;20;19;
39955;PMS5003;25631;51.516;-0.470;2022-12-07T12:20:00;20;19;
39955;PMS5003;25631;51.516;-0.470;2022-12-07T12:22:43;20;19;
39955;PMS5003;25631;51.516;-0.470;2022-12-07T12:25:26;19;18;
39955;PMS5003;25631;51.516;-0.470;2022-12-07T12:28:04;19;18;
39955;PMS5003;25631;51.516;-0.470;2022-12-07T12:30:41;19;18;
39955;PMS5003;25631;51.516;-0.470;2022-12-07T12:33:19;19;18;
39955;PMS5003;25631;51.516;-0.470;2022-12-07T12:36:26;19;18;
39955;PMS5003;25631;51.516;-0.470;2022-12-07T12:39:19;19;18;
39955;PMS5003;25631;51.516;-0.470;2022-12-07T12:41:58;19;18;
39955;PMS5003;25631;51.516;-0.470;2022-12-07T12:44:39;19;18;
39955;PMS5003;25631;51.516;-0.470;2022-12-07T12:47:41;19;18;
39955;PMS5003;25631;51.516;-0.470;2022-12-07T12:50:28;21;19;
39955;PMS5003;25631;51.516;-0.470;2022-12-07T12:53:16;21;19;
39955;PMS5003;25631;51.516;-0.470;2022-12-07T12:56:03;21;19;
39955;PMS5003;25631;51.516;-0.470;2022-12-07T12:59:29;21;19;
39955;PMS5003;25631;51.516;-0.470;2022-12-07T13:02:09;21;19;
39955;PMS5003;25631;51.516;-0.470;2022-12-07T13:04:55;21;19;
39955;PMS5003;25631;51.516;-0.470;2022-12-07T13:07:51;21;19;
39955;PMS5003;25631;51.516;-0.470;2022-12-07T13:10:34;21;19;
39955;PMS5003;25631;51.516;-0.470;2022-12-07T13:13:46;21;19;
39955;PMS5003;25631;51.516;-0.470;2022-12-07T13:16:40;21;19;
39955;PMS5003;25631;51.516;-0.470;2022-12-07T13:21:41;21;19;
39955;PMS5003;25631;51.516;-0.470;2022-12-07T13:24:18;19;18;
39955;PMS5003;25631;51.516;-0.470;2022-12-07T13:26:55;19;18;
39955;PMS5003;25631;51.516;-0.470;2022-12-07T13:29:36;19;18;
39955;PMS5003;25631;51.516;-0.470;2022-12-07T13:32:19;19;18;
39955;PMS5003;25631;51.516;-0.470;2022-12-07T13:35:00;19;18;
39955;PMS5003;25631;51.516;-0.470;2022-12-07T13:37:55;19;18;
39955;PMS5003;25631;51.516;-0.470;2022-12-07T13:40:31;18;17;
39955;PMS5003;25631;51.516;-0.470;2022-12-07T13:43:12;18;17;
39955;PMS5003;25631;51.516;-0.470;2022-12-07T13:45:55;18;17;
39955;PMS5003;25631;51.516;-0.470;2022-12-07T13:48:42;19;17;
39955;PMS5003;25631;51.516;-0.470;2022-12-07T13:51:22;19;17;
39955;PMS5003;25631;51.516;-0.470;2022-12-07T13:54:01;19;17;
39955;PMS5003;25631;51.516;-0.470;2022-12-07T13:56:47;18;17;
39955;PMS5003;25631;51.516;-0.470;2022-12-07T13:59:25;18;17;
39955;PMS5003;25631;51.516;-0.470;2022-12-07T14:02:02;18;17;
39955;PMS5003;25631;51.516;-0.470;2022-12-07T14:05:05;16;15;
39955;PMS5003;25631;51.516;-0.470;2022-12-07T14:07:49;16;15;
39955;PMS5003;25631;51.516;-0.470;2022-12-07T14:10:30;16;15;
39955;PMS5003;25631;51.516;-0.470;2022-12-07T14:13:22;15;15;
39955;PMS5003;25631;51.516;-0.470;2022-12-07T14:16:17;15;15;
39955;PMS5003;25631;51.516;-0.470;2022-12-07T14:18:59;15;15;
39955;PMS5003;25631;51.516;-0.470;2022-12-07T14:21:37;15;15;
39955;PMS5003;25631;51.516;-0.470;2022-12-07T14:24:15;15;15;
39955;PMS5003;25631;51.516;-0.470;2022-12-07T14:26:53;15;15;
39955;PMS5003;25631;51.516;-0.470;2022-12-07T14:29:31;14;14;
39955;PMS5003;25631;51.516;-0.470;2022-12-07T14:32:22;14;14;
39955;PMS5003;25631;51.516;-0.470;2022-12-07T14:35:00;14;14;
39955;PMS5003;25631;51.516;-0.470;2022-12-07T14:37:39;15;15;
39955;PMS5003;25631;51.516;-0.470;2022-12-07T14:40:18;15;15;
39955;PMS5003;25631;51.516;-0.470;2022-12-07T14:42:57;15;15;
39955;PMS5003;25631;51.516;-0.470;2022-12-07T14:45:37;16;16;
39955;PMS5003;25631;51.516;-0.470;2022-12-07T14:48:14;16;16;
39955;PMS5003;25631;51.516;-0.470;2022-12-07T14:50:52;16;16;
39955;PMS5003;25631;51.516;-0.470;2022-12-07T14:53:30;16;16;
39955;PMS5003;25631;51.516;-0.470;2022-12-07T14:56:10;16;16;
39955;PMS5003;25631;51.516;-0.470;2022-12-07T14:58:47;16;16;
39955;PMS5003;25631;51.516;-0.470;2022-12-07T15:01:23;16;16;
39955;PMS5003;25631;51.516;-0.470;2022-12-07T15:04:00;16;16;
39955;PMS5003;25631;51.516;-0.470;2022-12-07T15:06:36;16;16;
39955;PMS5003;25631;51.516;-0.470;2022-12-07T15:09:13;16;16;
39955;PMS5003;25631;51.516;-0.470;2022-12-07T15:11:49;16;16;
39955;PMS5003;25631;51.516;-0.470;2022-12-07T15:14:26;16;16;
39955;PMS5003;25631;51.516;-0.470;2022-12-07T15:17:02;16;16;
39955;PMS5003;25631;51.516;-0.470;2022-12-07T15:19:39;16;16;
39955;PMS5003;25631;51.516;-0.470;2022-12-07T15:22:15;16;16;
39955;PMS5003;25631;51.516;-0.470;2022-12-07T15:24:51;18;17;
39955;PMS5003;25631;51.516;-0.470;2022-12-07T15:27:28;18;17;
39955;PMS5003;25631;51.516;-0.470;2022-12-07T15:30:06;18;17;
39955;PMS5003;25631;51.516;-0.470;2022-12-07T15:32:43;19;18;
39955;PMS5003;25631;51.516;-0.470;2022-12-07T15:35:20;19;18;
39955;PMS5003;25631;51.516;-0.470;2022-12-07T15:37:56;19;18;
39955;PMS5003;25631;51.516;-0.470;2022-12-07T15:40:33;19;18;
39955;PMS5003;25631;51.516;-0.470;2022-12-07T15:43:09;19;18;
39955;PMS5003;25631;51.516;-0.470;2022-12-07T15:45:49;19;18;
39955;PMS5003;25631;51.516;-0.470;2022-12-07T15:48:26;20;19;
39955;PMS5003;25631;51.516;-0.470;2022-12-07T15:51:02;20;19;
39955;PMS5003;25631;51.516;-0.470;2022-12-07T15:53:40;20;19;
39955;PMS5003;25631;51.516;-0.470;2022-12-07T15:56:16;19;18;
39955;PMS5003;25631;51.516;-0.470;2022-12-07T15:58:53;19;18;
39955;PMS5003;25631;51.516;-0.470;2022-12-07T16:01:29;19;18;
39955;PMS5003;25631;51.516;-0.470;2022-12-07T16:04:06;20;19;
39955;PMS5003;25631;51.516;-0.470;2022-12-07T16:06:42;21;20;
39955;PMS5003;25631;51.516;-0.470;2022-12-07T16:09:18;22;21;
39955;PMS5003;25631;51.516;-0.470;2022-12-07T16:11:55;23;21;
39955;PMS5003;25631;51.516;-0.470;2022-12-07T16:14:31;23;22;
39955;PMS5003;25631;51.516;-0.470;2022-12-07T16:17:08;22;22;
39955;PMS5003;25631;51.516;-0.470;2022-12-07T16:19:45;22;21;
39955;PMS5003;25631;51.516;-0.470;2022-12-07T16:22:22;21;20;
39955;PMS5003;25631;51.516;-0.470;2022-12-07T16:24:59;20;19;
39955;PMS5003;25631;51.516;-0.470;2022-12-07T16:27:35;21;21;
39955;PMS5003;25631;51.516;-0.470;2022-12-07T16:30:12;20;20;
39955;PMS5003;25631;51.516;-0.470;2022-12-07T16:32:50;19;19;
39955;PMS5003;25631;51.516;-0.470;2022-12-07T16:35:26;19;19;
39955;PMS5003;25631;51.516;-0.470;2022-12-07T16:38:03;19;19;
39955;PMS5003;25631;51.516;-0.470;2022-12-07T16:40:39;19;19;
39955;PMS5003;25631;51.516;-0.470;2022-12-07T16:43:16;20;20;
39955;PMS5003;25631;51.516;-0.470;2022-12-07T16:45:52;20;20;
39955;PMS5003;25631;51.516;-0.470;2022-12-07T16:48:29;20;20;
39955;PMS5003;25631;51.516;-0.470;2022-12-07T16:51:06;19;18;
39955;PMS5003;25631;51.516;-0.470;2022-12-07T16:53:45;19;18;
39955;PMS5003;25631;51.516;-0.470;2022-12-07T16:56:21;19;18;
39955;PMS5003;25631;51.516;-0.470;2022-12-07T16:58:58;18;18;
39955;PMS5003;25631;51.516;-0.470;2022-12-07T17:01:35;18;18;
39955;PMS5003;25631;51.516;-0.470;2022-12-07T17:04:11;18;18;
39955;PMS5003;25631;51.516;-0.470;2022-12-07T17:06:48;18;18;
39955;PMS5003;25631;51.516;-0.470;2022-12-07T17:09:24;18;18;
39955;PMS5003;25631;51.516;-0.470;2022-12-07T17:12:01;18;18;
39955;PMS5003;25631;51.516;-0.470;2022-12-07T17:14:38;20;20;
39955;PMS5003;25631;51.516;-0.470;2022-12-07T17:17:15;20;20;
39955;PMS5003;25631;51.516;-0.470;2022-12-07T17:19:51;20;20;
39955;PMS5003;25631;51.516;-0.470;2022-12-07T17:22:28;21;20;
39955;PMS5003;25631;51.516;-0.470;2022-12-07T17:25:04;21;20;